sensor_id;sensor_type;location;lat;lon;timestamp;pressure;altitude;pressure_sealevel;temperature;humidity
62928;BME280;51070;52.236;-0.892;2022-12-13T00:02:23;100114.29;;;0.88;90.81
62928;BME280;51070;52.236;-0.892;2022-12-13T00:04:49;100114.58;;;0.87;90.67
62928;BME280;51070;52.236;-0.892;2022-12-13T00:07:15;100116.05;;;0.88;91.52
62928;BME280;51070;52.236;-0.892;2022-12-13T00:09:40;100115.23;;;0.89;91.18
62928;BME280;51070;52.236;-0.892;2022-12-13T00:12:07;100112.52;;;0.90;91.12
62928;BME280;51070;52.236;-0.892;2022-12-13T00:14:32;100121.05;;;0.95;91.95
62928;BME280;51070;52.236;-0.892;2022-12-13T00:16:57;100125.33;;;0.99;91.34
62928;BME280;51070;52.236;-0.892;2022-12-13T00:19:22;100121.86;;;0.97;91.30
62928;BME280;51070;52.236;-0.892;2022-12-13T00:21:48;100119.73;;;0.96;90.89
62928;BME280;51070;52.236;-0.892;2022-12-13T00:24:14;100118.55;;;0.93;90.89
62928;BME280;51070;52.236;-0.892;2022-12-13T00:26:40;100114.40;;;0.89;90.97
62928;BME280;51070;52.236;-0.892;2022-12-13T00:29:06;100111.31;;;0.89;91.18
62928;BME280;51070;52.236;-0.892;2022-12-13T00:31:31;100107.13;;;0.90;91.38
62928;BME280;51070;52.236;-0.892;2022-12-13T00:33:59;100106.11;;;0.93;91.34
62928;BME280;51070;52.236;-0.892;2022-12-13T00:36:24;100101.79;;;0.95;91.30
62928;BME280;51070;52.236;-0.892;2022-12-13T00:38:50;100099.55;;;0.97;91.32
62928;BME280;51070;52.236;-0.892;2022-12-13T00:41:25;100096.85;;;0.97;91.26
62928;BME280;51070;52.236;-0.892;2022-12-13T00:43:51;100098.96;;;0.96;91.06
62928;BME280;51070;52.236;-0.892;2022-12-13T00:46:17;100092.95;;;0.92;90.73
62928;BME280;51070;52.236;-0.892;2022-12-13T00:48:43;100087.39;;;0.87;91.14
62928;BME280;51070;52.236;-0.892;2022-12-13T00:51:12;100089.89;;;0.83;91.08
62928;BME280;51070;52.236;-0.892;2022-12-13T00:53:37;100087.31;;;0.80;90.84
62928;BME280;51070;52.236;-0.892;2022-12-13T00:56:03;100083.96;;;0.75;90.99
62928;BME280;51070;52.236;-0.892;2022-12-13T00:58:28;100081.07;;;0.70;90.78
62928;BME280;51070;52.236;-0.892;2022-12-13T01:01:00;100078.63;;;0.63;91.00
62928;BME280;51070;52.236;-0.892;2022-12-13T01:03:26;100079.30;;;0.58;91.31
62928;BME280;51070;52.236;-0.892;2022-12-13T01:05:51;100079.23;;;0.51;91.10
62928;BME280;51070;52.236;-0.892;2022-12-13T01:08:16;100078.39;;;0.46;91.18
62928;BME280;51070;52.236;-0.892;2022-12-13T01:10:45;100081.81;;;0.40;91.11
62928;BME280;51070;52.236;-0.892;2022-12-13T01:13:10;100075.40;;;0.36;91.28
62928;BME280;51070;52.236;-0.892;2022-12-13T01:15:40;100072.69;;;0.33;91.39
62928;BME280;51070;52.236;-0.892;2022-12-13T01:18:05;100070.15;;;0.31;91.59
62928;BME280;51070;52.236;-0.892;2022-12-13T01:20:30;100071.09;;;0.29;91.62
62928;BME280;51070;52.236;-0.892;2022-12-13T01:22:56;100069.77;;;0.30;92.27
62928;BME280;51070;52.236;-0.892;2022-12-13T01:25:21;100069.02;;;0.31;91.97
62928;BME280;51070;52.236;-0.892;2022-12-13T01:27:46;100067.30;;;0.31;92.18
62928;BME280;51070;52.236;-0.892;2022-12-13T01:30:11;100072.85;;;0.33;92.10
62928;BME280;51070;52.236;-0.892;2022-12-13T01:32:37;100077.27;;;0.33;91.99
62928;BME280;51070;52.236;-0.892;2022-12-13T01:35:02;100080.08;;;0.32;91.81
62928;BME280;51070;52.236;-0.892;2022-12-13T01:37:28;100077.61;;;0.30;91.73
62928;BME280;51070;52.236;-0.892;2022-12-13T01:39:53;100086.45;;;0.28;91.73
62928;BME280;51070;52.236;-0.892;2022-12-13T01:42:18;100089.27;;;0.24;91.57
62928;BME280;51070;52.236;-0.892;2022-12-13T01:47:30;100096.77;;;0.16;91.80
62928;BME280;51070;52.236;-0.892;2022-12-13T01:49:57;100099.67;;;0.14;92.08
62928;BME280;51070;52.236;-0.892;2022-12-13T01:52:24;100097.95;;;0.11;92.00
62928;BME280;51070;52.236;-0.892;2022-12-13T01:54:50;100094.77;;;0.06;91.99
62928;BME280;51070;52.236;-0.892;2022-12-13T01:57:17;100094.60;;;0.04;92.38
62928;BME280;51070;52.236;-0.892;2022-12-13T01:59:44;100092.55;;;0.03;92.60
62928;BME280;51070;52.236;-0.892;2022-12-13T02:02:10;100093.10;;;0.04;92.51
62928;BME280;51070;52.236;-0.892;2022-12-13T02:07:10;100108.17;;;0.03;92.66
62928;BME280;51070;52.236;-0.892;2022-12-13T02:09:36;100104.77;;;0.00;92.65
62928;BME280;51070;52.236;-0.892;2022-12-13T02:12:01;100105.02;;;-0.01;93.06
62928;BME280;51070;52.236;-0.892;2022-12-13T02:14:28;100105.66;;;-0.02;92.82
62928;BME280;51070;52.236;-0.892;2022-12-13T02:17:05;100107.83;;;-0.05;92.80
62928;BME280;51070;52.236;-0.892;2022-12-13T02:19:45;100113.00;;;-0.09;92.80
62928;BME280;51070;52.236;-0.892;2022-12-13T02:25:17;100114.91;;;-0.16;92.67
62928;BME280;51070;52.236;-0.892;2022-12-13T02:27:51;100115.64;;;-0.20;92.73
62928;BME280;51070;52.236;-0.892;2022-12-13T02:35:36;100116.58;;;-0.29;93.01
62928;BME280;51070;52.236;-0.892;2022-12-13T02:38:07;100113.14;;;-0.35;92.77
62928;BME280;51070;52.236;-0.892;2022-12-13T02:40:50;100109.42;;;-0.40;92.88
62928;BME280;51070;52.236;-0.892;2022-12-13T02:43:22;100113.67;;;-0.43;93.08
62928;BME280;51070;52.236;-0.892;2022-12-13T02:45:50;100112.37;;;-0.42;93.55
62928;BME280;51070;52.236;-0.892;2022-12-13T02:48:18;100113.87;;;-0.40;93.45
62928;BME280;51070;52.236;-0.892;2022-12-13T02:50:45;100114.88;;;-0.37;93.29
62928;BME280;51070;52.236;-0.892;2022-12-13T02:53:12;100111.79;;;-0.35;93.46
62928;BME280;51070;52.236;-0.892;2022-12-13T02:55:39;100109.59;;;-0.32;93.47
62928;BME280;51070;52.236;-0.892;2022-12-13T02:58:10;100109.85;;;-0.31;93.17
62928;BME280;51070;52.236;-0.892;2022-12-13T03:05:46;100115.38;;;-0.37;92.83
62928;BME280;51070;52.236;-0.892;2022-12-13T03:08:41;100120.54;;;-0.39;92.55
62928;BME280;51070;52.236;-0.892;2022-12-13T03:11:16;100125.77;;;-0.45;92.20
62928;BME280;51070;52.236;-0.892;2022-12-13T03:13:48;100123.75;;;-0.50;92.03
62928;BME280;51070;52.236;-0.892;2022-12-13T03:16:30;100127.89;;;-0.54;91.95
62928;BME280;51070;52.236;-0.892;2022-12-13T03:18:59;100133.52;;;-0.58;92.07
62928;BME280;51070;52.236;-0.892;2022-12-13T03:21:25;100132.65;;;-0.61;92.17
62928;BME280;51070;52.236;-0.892;2022-12-13T03:23:51;100125.90;;;-0.66;92.04
62928;BME280;51070;52.236;-0.892;2022-12-13T03:26:17;100115.61;;;-0.70;92.08
62928;BME280;51070;52.236;-0.892;2022-12-13T03:28:44;100112.05;;;-0.72;91.98
62928;BME280;51070;52.236;-0.892;2022-12-13T03:31:09;100113.26;;;-0.74;91.91
62928;BME280;51070;52.236;-0.892;2022-12-13T03:33:34;100112.86;;;-0.75;92.19
62928;BME280;51070;52.236;-0.892;2022-12-13T03:36:00;100114.94;;;-0.75;92.28
62928;BME280;51070;52.236;-0.892;2022-12-13T03:38:26;100111.48;;;-0.73;92.36
62928;BME280;51070;52.236;-0.892;2022-12-13T03:40:58;100110.11;;;-0.71;92.23
62928;BME280;51070;52.236;-0.892;2022-12-13T03:43:24;100103.44;;;-0.69;92.13
62928;BME280;51070;52.236;-0.892;2022-12-13T03:45:50;100106.77;;;-0.67;92.24
62928;BME280;51070;52.236;-0.892;2022-12-13T03:48:16;100111.42;;;-0.69;92.19
62928;BME280;51070;52.236;-0.892;2022-12-13T03:50:42;100111.10;;;-0.69;92.17
62928;BME280;51070;52.236;-0.892;2022-12-13T03:53:07;100110.08;;;-0.69;92.09
62928;BME280;51070;52.236;-0.892;2022-12-13T03:55:33;100101.02;;;-0.70;91.96
62928;BME280;51070;52.236;-0.892;2022-12-13T03:57:58;100099.73;;;-0.71;91.79
62928;BME280;51070;52.236;-0.892;2022-12-13T04:00:26;100101.29;;;-0.73;91.89
62928;BME280;51070;52.236;-0.892;2022-12-13T04:02:52;100097.91;;;-0.76;91.87
62928;BME280;51070;52.236;-0.892;2022-12-13T04:05:17;100089.45;;;-0.78;91.80
62928;BME280;51070;52.236;-0.892;2022-12-13T04:07:42;100086.02;;;-0.81;91.65
62928;BME280;51070;52.236;-0.892;2022-12-13T04:10:08;100088.86;;;-0.84;91.73
62928;BME280;51070;52.236;-0.892;2022-12-13T04:12:34;100091.42;;;-0.86;91.79
62928;BME280;51070;52.236;-0.892;2022-12-13T04:15:18;100089.08;;;-0.89;91.94
62928;BME280;51070;52.236;-0.892;2022-12-13T04:17:43;100087.81;;;-0.92;91.73
62928;BME280;51070;52.236;-0.892;2022-12-13T04:20:09;100091.71;;;-0.95;91.93
62928;BME280;51070;52.236;-0.892;2022-12-13T04:22:34;100086.99;;;-0.97;91.93
62928;BME280;51070;52.236;-0.892;2022-12-13T04:24:59;100084.27;;;-1.00;91.92
62928;BME280;51070;52.236;-0.892;2022-12-13T04:27:24;100082.60;;;-1.01;92.24
62928;BME280;51070;52.236;-0.892;2022-12-13T04:29:50;100083.86;;;-1.03;92.15
62928;BME280;51070;52.236;-0.892;2022-12-13T04:32:15;100081.38;;;-1.04;92.26
62928;BME280;51070;52.236;-0.892;2022-12-13T04:34:40;100082.61;;;-1.06;92.06
62928;BME280;51070;52.236;-0.892;2022-12-13T04:37:05;100084.16;;;-1.06;92.27
62928;BME280;51070;52.236;-0.892;2022-12-13T04:39:31;100085.38;;;-1.06;92.51
62928;BME280;51070;52.236;-0.892;2022-12-13T04:41:56;100090.15;;;-1.03;92.42
62928;BME280;51070;52.236;-0.892;2022-12-13T04:44:21;100086.02;;;-1.01;92.44
62928;BME280;51070;52.236;-0.892;2022-12-13T04:46:46;100086.14;;;-0.99;92.48
62928;BME280;51070;52.236;-0.892;2022-12-13T04:49:12;100081.34;;;-0.98;92.56
62928;BME280;51070;52.236;-0.892;2022-12-13T04:51:37;100082.60;;;-0.97;92.36
62928;BME280;51070;52.236;-0.892;2022-12-13T04:54:02;100078.83;;;-0.94;92.50
62928;BME280;51070;52.236;-0.892;2022-12-13T04:56:28;100070.52;;;-0.95;91.94
62928;BME280;51070;52.236;-0.892;2022-12-13T04:58:56;100071.94;;;-0.96;91.83
62928;BME280;51070;52.236;-0.892;2022-12-13T05:01:21;100072.48;;;-0.98;91.95
62928;BME280;51070;52.236;-0.892;2022-12-13T05:03:46;100067.02;;;-0.99;91.89
62928;BME280;51070;52.236;-0.892;2022-12-13T05:06:12;100067.26;;;-1.00;91.72
62928;BME280;51070;52.236;-0.892;2022-12-13T05:08:38;100073.19;;;-1.05;91.51
62928;BME280;51070;52.236;-0.892;2022-12-13T05:11:04;100074.12;;;-1.09;91.68
62928;BME280;51070;52.236;-0.892;2022-12-13T05:13:30;100072.05;;;-1.12;91.77
62928;BME280;51070;52.236;-0.892;2022-12-13T05:15:59;100078.43;;;-1.15;91.84
62928;BME280;51070;52.236;-0.892;2022-12-13T05:18:25;100078.40;;;-1.18;91.71
62928;BME280;51070;52.236;-0.892;2022-12-13T05:20:50;100078.33;;;-1.22;91.67
62928;BME280;51070;52.236;-0.892;2022-12-13T05:23:16;100077.75;;;-1.25;91.92
62928;BME280;51070;52.236;-0.892;2022-12-13T05:25:42;100072.10;;;-1.29;91.67
62928;BME280;51070;52.236;-0.892;2022-12-13T05:28:07;100070.14;;;-1.33;91.67
62928;BME280;51070;52.236;-0.892;2022-12-13T05:30:32;100068.77;;;-1.33;91.90
62928;BME280;51070;52.236;-0.892;2022-12-13T05:32:57;100064.77;;;-1.32;92.01
62928;BME280;51070;52.236;-0.892;2022-12-13T05:35:23;100063.79;;;-1.29;92.24
62928;BME280;51070;52.236;-0.892;2022-12-13T05:37:48;100059.98;;;-1.28;92.07
62928;BME280;51070;52.236;-0.892;2022-12-13T05:40:13;100057.35;;;-1.27;92.03
62928;BME280;51070;52.236;-0.892;2022-12-13T05:42:38;100057.31;;;-1.24;92.00
62928;BME280;51070;52.236;-0.892;2022-12-13T05:45:07;100053.27;;;-1.23;91.82
62928;BME280;51070;52.236;-0.892;2022-12-13T05:47:32;100056.52;;;-1.23;91.81
62928;BME280;51070;52.236;-0.892;2022-12-13T05:49:58;100059.64;;;-1.25;91.49
62928;BME280;51070;52.236;-0.892;2022-12-13T05:52:23;100063.19;;;-1.25;91.68
62928;BME280;51070;52.236;-0.892;2022-12-13T05:54:52;100063.98;;;-1.28;91.02
62928;BME280;51070;52.236;-0.892;2022-12-13T05:57:18;100064.07;;;-1.40;90.25
62928;BME280;51070;52.236;-0.892;2022-12-13T05:59:43;100068.86;;;-1.49;90.41
62928;BME280;51070;52.236;-0.892;2022-12-13T06:02:08;100072.27;;;-1.55;90.45
62928;BME280;51070;52.236;-0.892;2022-12-13T06:04:34;100072.97;;;-1.58;91.08
62928;BME280;51070;52.236;-0.892;2022-12-13T06:06:59;100078.61;;;-1.59;91.02
62928;BME280;51070;52.236;-0.892;2022-12-13T06:09:24;100078.83;;;-1.59;91.28
62928;BME280;51070;52.236;-0.892;2022-12-13T06:11:52;100074.77;;;-1.59;91.21
62928;BME280;51070;52.236;-0.892;2022-12-13T06:14:18;100072.40;;;-1.61;90.85
62928;BME280;51070;52.236;-0.892;2022-12-13T06:16:43;100071.40;;;-1.65;91.01
62928;BME280;51070;52.236;-0.892;2022-12-13T06:19:09;100071.17;;;-1.66;91.21
62928;BME280;51070;52.236;-0.892;2022-12-13T06:21:34;100073.16;;;-1.67;91.37
62928;BME280;51070;52.236;-0.892;2022-12-13T06:23:59;100078.91;;;-1.67;91.43
62928;BME280;51070;52.236;-0.892;2022-12-13T06:26:25;100080.77;;;-1.67;91.33
62928;BME280;51070;52.236;-0.892;2022-12-13T06:28:50;100078.58;;;-1.72;90.89
62928;BME280;51070;52.236;-0.892;2022-12-13T06:31:15;100084.27;;;-1.78;90.91
62928;BME280;51070;52.236;-0.892;2022-12-13T06:33:41;100083.09;;;-1.82;91.08
62928;BME280;51070;52.236;-0.892;2022-12-13T06:36:06;100082.57;;;-1.87;91.11
62928;BME280;51070;52.236;-0.892;2022-12-13T06:38:32;100083.58;;;-1.90;91.19
62928;BME280;51070;52.236;-0.892;2022-12-13T06:43:32;100091.42;;;-1.94;91.54
62928;BME280;51070;52.236;-0.892;2022-12-13T06:45:57;100084.08;;;-1.92;91.88
62928;BME280;51070;52.236;-0.892;2022-12-13T06:48:23;100075.91;;;-1.88;92.22
62928;BME280;51070;52.236;-0.892;2022-12-13T06:50:48;100076.76;;;-1.83;92.18
62928;BME280;51070;52.236;-0.892;2022-12-13T06:53:14;100073.39;;;-1.81;91.95
62928;BME280;51070;52.236;-0.892;2022-12-13T06:55:39;100076.91;;;-1.79;91.75
62928;BME280;51070;52.236;-0.892;2022-12-13T06:58:04;100080.45;;;-1.79;91.53
62928;BME280;51070;52.236;-0.892;2022-12-13T07:00:30;100085.36;;;-1.81;91.29
62928;BME280;51070;52.236;-0.892;2022-12-13T07:02:55;100091.73;;;-1.87;90.97
62928;BME280;51070;52.236;-0.892;2022-12-13T07:05:21;100090.63;;;-1.91;91.29
62928;BME280;51070;52.236;-0.892;2022-12-13T07:07:46;100079.55;;;-1.92;91.61
62928;BME280;51070;52.236;-0.892;2022-12-13T07:10:11;100084.23;;;-1.92;91.54
62928;BME280;51070;52.236;-0.892;2022-12-13T07:12:37;100090.83;;;-1.92;91.63
62928;BME280;51070;52.236;-0.892;2022-12-13T07:15:02;100095.02;;;-1.93;91.39
62928;BME280;51070;52.236;-0.892;2022-12-13T07:17:27;100094.05;;;-1.95;91.29
62928;BME280;51070;52.236;-0.892;2022-12-13T07:19:53;100096.09;;;-1.95;91.60
62928;BME280;51070;52.236;-0.892;2022-12-13T07:22:18;100100.41;;;-1.94;91.81
62928;BME280;51070;52.236;-0.892;2022-12-13T07:24:44;100097.73;;;-1.91;91.63
62928;BME280;51070;52.236;-0.892;2022-12-13T07:27:09;100093.05;;;-1.88;91.82
62928;BME280;51070;52.236;-0.892;2022-12-13T07:29:34;100092.93;;;-1.82;91.92
62928;BME280;51070;52.236;-0.892;2022-12-13T07:31:59;100091.25;;;-1.77;91.84
62928;BME280;51070;52.236;-0.892;2022-12-13T07:34:25;100092.60;;;-1.73;91.54
62928;BME280;51070;52.236;-0.892;2022-12-13T07:36:50;100100.23;;;-1.70;91.33
62928;BME280;51070;52.236;-0.892;2022-12-13T07:39:15;100099.10;;;-1.72;91.01
62928;BME280;51070;52.236;-0.892;2022-12-13T07:41:41;100101.86;;;-1.74;90.85
62928;BME280;51070;52.236;-0.892;2022-12-13T07:44:06;100091.98;;;-1.74;90.93
62928;BME280;51070;52.236;-0.892;2022-12-13T07:46:31;100084.05;;;-1.76;90.99
62928;BME280;51070;52.236;-0.892;2022-12-13T07:48:57;100085.48;;;-1.77;90.99
62928;BME280;51070;52.236;-0.892;2022-12-13T07:51:22;100091.38;;;-1.80;90.76
62928;BME280;51070;52.236;-0.892;2022-12-13T07:53:47;100090.95;;;-1.81;90.79
62928;BME280;51070;52.236;-0.892;2022-12-13T07:56:15;100090.32;;;-1.83;90.87
62928;BME280;51070;52.236;-0.892;2022-12-13T07:58:41;100093.96;;;-1.85;90.84
62928;BME280;51070;52.236;-0.892;2022-12-13T08:01:07;100098.46;;;-1.86;90.84
62928;BME280;51070;52.236;-0.892;2022-12-13T08:03:33;100096.84;;;-1.87;90.92
62928;BME280;51070;52.236;-0.892;2022-12-13T08:08:23;100098.10;;;-1.86;91.05
62928;BME280;51070;52.236;-0.892;2022-12-13T08:10:49;100099.02;;;-1.85;91.12
62928;BME280;51070;52.236;-0.892;2022-12-13T08:13:14;100099.09;;;-1.84;90.98
62928;BME280;51070;52.236;-0.892;2022-12-13T08:15:42;100096.36;;;-1.84;90.77
62928;BME280;51070;52.236;-0.892;2022-12-13T08:18:07;100092.77;;;-1.85;90.76
62928;BME280;51070;52.236;-0.892;2022-12-13T08:20:33;100091.81;;;-1.84;90.91
62928;BME280;51070;52.236;-0.892;2022-12-13T08:22:58;100086.78;;;-1.81;91.17
62928;BME280;51070;52.236;-0.892;2022-12-13T08:25:24;100085.29;;;-1.76;91.13
62928;BME280;51070;52.236;-0.892;2022-12-13T08:27:49;100085.35;;;-1.72;90.95
62928;BME280;51070;52.236;-0.892;2022-12-13T08:30:14;100091.13;;;-1.67;91.11
62928;BME280;51070;52.236;-0.892;2022-12-13T08:32:40;100095.77;;;-1.61;91.18
62928;BME280;51070;52.236;-0.892;2022-12-13T08:35:05;100092.88;;;-1.57;90.98
62928;BME280;51070;52.236;-0.892;2022-12-13T08:37:34;100093.32;;;-1.53;90.98
62928;BME280;51070;52.236;-0.892;2022-12-13T08:39:59;100093.70;;;-1.47;91.02
62928;BME280;51070;52.236;-0.892;2022-12-13T08:42:24;100092.34;;;-1.45;90.50
62928;BME280;51070;52.236;-0.892;2022-12-13T08:44:51;100093.06;;;-1.44;90.28
62928;BME280;51070;52.236;-0.892;2022-12-13T08:47:17;100092.14;;;-1.43;90.39
62928;BME280;51070;52.236;-0.892;2022-12-13T08:49:42;100094.35;;;-1.43;90.34
62928;BME280;51070;52.236;-0.892;2022-12-13T08:52:08;100093.84;;;-1.40;90.47
62928;BME280;51070;52.236;-0.892;2022-12-13T08:54:33;100089.23;;;-1.34;90.54
62928;BME280;51070;52.236;-0.892;2022-12-13T08:56:58;100087.17;;;-1.27;90.24
62928;BME280;51070;52.236;-0.892;2022-12-13T08:59:23;100087.23;;;-1.20;90.09
62928;BME280;51070;52.236;-0.892;2022-12-13T09:01:50;100091.50;;;-1.15;89.83
62928;BME280;51070;52.236;-0.892;2022-12-13T09:04:18;100088.43;;;-1.11;89.77
62928;BME280;51070;52.236;-0.892;2022-12-13T09:06:43;100089.06;;;-1.06;89.46
62928;BME280;51070;52.236;-0.892;2022-12-13T09:09:10;100088.67;;;-1.02;89.55
62928;BME280;51070;52.236;-0.892;2022-12-13T09:11:37;100086.14;;;-0.95;89.71
62928;BME280;51070;52.236;-0.892;2022-12-13T09:14:04;100084.86;;;-0.88;89.23
62928;BME280;51070;52.236;-0.892;2022-12-13T09:16:29;100083.17;;;-0.85;88.70
62928;BME280;51070;52.236;-0.892;2022-12-13T09:18:54;100082.77;;;-0.87;88.18
62928;BME280;51070;52.236;-0.892;2022-12-13T09:21:20;100085.29;;;-0.87;88.06
62928;BME280;51070;52.236;-0.892;2022-12-13T09:23:45;100084.44;;;-0.84;88.06
62928;BME280;51070;52.236;-0.892;2022-12-13T09:26:14;100079.81;;;-0.77;88.23
62928;BME280;51070;52.236;-0.892;2022-12-13T09:28:40;100078.52;;;-0.69;88.15
62928;BME280;51070;52.236;-0.892;2022-12-13T09:31:09;100070.29;;;-0.62;87.76
62928;BME280;51070;52.236;-0.892;2022-12-13T09:33:35;100065.92;;;-0.59;87.36
62928;BME280;51070;52.236;-0.892;2022-12-13T09:36:05;100061.47;;;-0.57;87.14
62928;BME280;51070;52.236;-0.892;2022-12-13T09:38:34;100063.90;;;-0.54;87.25
62928;BME280;51070;52.236;-0.892;2022-12-13T09:41:04;100061.55;;;-0.53;86.61
62928;BME280;51070;52.236;-0.892;2022-12-13T09:43:33;100064.99;;;-0.50;86.71
62928;BME280;51070;52.236;-0.892;2022-12-13T09:46:00;100063.42;;;-0.48;86.31
62928;BME280;51070;52.236;-0.892;2022-12-13T09:48:28;100061.41;;;-0.45;86.68
62928;BME280;51070;52.236;-0.892;2022-12-13T09:50:53;100055.87;;;-0.42;86.56
62928;BME280;51070;52.236;-0.892;2022-12-13T09:53:19;100059.06;;;-0.39;85.93
62928;BME280;51070;52.236;-0.892;2022-12-13T09:55:46;100056.94;;;-0.38;86.12
62928;BME280;51070;52.236;-0.892;2022-12-13T09:58:29;100061.11;;;-0.34;86.09
62928;BME280;51070;52.236;-0.892;2022-12-13T10:00:56;100057.52;;;-0.29;86.19
62928;BME280;51070;52.236;-0.892;2022-12-13T10:03:23;100059.16;;;-0.22;86.24
62928;BME280;51070;52.236;-0.892;2022-12-13T10:05:59;100060.11;;;-0.15;85.96
62928;BME280;51070;52.236;-0.892;2022-12-13T10:08:40;100054.34;;;-0.13;85.57
62928;BME280;51070;52.236;-0.892;2022-12-13T10:11:11;100055.63;;;-0.16;85.49
62928;BME280;51070;52.236;-0.892;2022-12-13T10:13:41;100054.23;;;-0.19;85.49
62928;BME280;51070;52.236;-0.892;2022-12-13T10:18:36;100047.88;;;-0.26;85.05
62928;BME280;51070;52.236;-0.892;2022-12-13T10:21:02;100044.91;;;-0.30;85.29
62928;BME280;51070;52.236;-0.892;2022-12-13T10:25:57;100050.95;;;-0.39;85.39
62928;BME280;51070;52.236;-0.892;2022-12-13T10:28:24;100051.20;;;-0.43;85.40
62928;BME280;51070;52.236;-0.892;2022-12-13T10:30:50;100046.88;;;-0.44;85.38
62928;BME280;51070;52.236;-0.892;2022-12-13T10:33:24;100045.89;;;-0.44;85.32
62928;BME280;51070;52.236;-0.892;2022-12-13T10:36:06;100045.70;;;-0.44;85.07
62928;BME280;51070;52.236;-0.892;2022-12-13T10:38:35;100042.33;;;-0.46;84.95
62928;BME280;51070;52.236;-0.892;2022-12-13T10:41:02;100043.26;;;-0.45;85.12
62928;BME280;51070;52.236;-0.892;2022-12-13T10:43:27;100045.16;;;-0.42;84.94
62928;BME280;51070;52.236;-0.892;2022-12-13T10:45:55;100043.20;;;-0.35;85.12
62928;BME280;51070;52.236;-0.892;2022-12-13T10:51:10;100031.39;;;-0.18;85.13
62928;BME280;51070;52.236;-0.892;2022-12-13T10:53:40;100030.67;;;-0.11;85.14
62928;BME280;51070;52.236;-0.892;2022-12-13T10:56:12;100027.95;;;-0.08;84.78
62928;BME280;51070;52.236;-0.892;2022-12-13T10:58:39;100029.44;;;-0.06;85.01
62928;BME280;51070;52.236;-0.892;2022-12-13T11:01:09;100026.06;;;-0.03;84.36
62928;BME280;51070;52.236;-0.892;2022-12-13T11:03:35;100024.98;;;-0.04;84.28
62928;BME280;51070;52.236;-0.892;2022-12-13T11:06:19;100027.14;;;-0.05;84.37
62928;BME280;51070;52.236;-0.892;2022-12-13T11:08:44;100028.49;;;-0.02;84.53
62928;BME280;51070;52.236;-0.892;2022-12-13T11:11:09;100022.73;;;0.00;84.39
62928;BME280;51070;52.236;-0.892;2022-12-13T11:13:52;100015.13;;;0.02;83.80
62928;BME280;51070;52.236;-0.892;2022-12-13T11:18:46;100013.87;;;0.08;84.26
62928;BME280;51070;52.236;-0.892;2022-12-13T11:21:15;100009.82;;;0.14;84.38
62928;BME280;51070;52.236;-0.892;2022-12-13T11:23:47;100004.67;;;0.19;83.86
62928;BME280;51070;52.236;-0.892;2022-12-13T11:26:16;99999.83;;;0.23;83.79
62928;BME280;51070;52.236;-0.892;2022-12-13T11:33:52;99987.66;;;0.32;83.58
62928;BME280;51070;52.236;-0.892;2022-12-13T11:41:47;99982.87;;;0.29;82.63
62928;BME280;51070;52.236;-0.892;2022-12-13T11:44:24;99983.09;;;0.27;82.71
62928;BME280;51070;52.236;-0.892;2022-12-13T11:46:53;99985.02;;;0.28;82.81
62928;BME280;51070;52.236;-0.892;2022-12-13T11:51:54;99971.65;;;0.26;82.92
62928;BME280;51070;52.236;-0.892;2022-12-13T11:54:45;99968.21;;;0.28;83.11
62928;BME280;51070;52.236;-0.892;2022-12-13T11:57:12;99960.11;;;0.32;83.13
62928;BME280;51070;52.236;-0.892;2022-12-13T11:59:47;99953.86;;;0.33;83.09
62928;BME280;51070;52.236;-0.892;2022-12-13T12:02:16;99956.60;;;0.33;83.18
62928;BME280;51070;52.236;-0.892;2022-12-13T12:07:16;99957.05;;;0.37;83.19
62928;BME280;51070;52.236;-0.892;2022-12-13T12:09:54;99947.55;;;0.38;83.18
62928;BME280;51070;52.236;-0.892;2022-12-13T12:12:34;99949.02;;;0.42;83.38
62928;BME280;51070;52.236;-0.892;2022-12-13T12:15:14;99944.02;;;0.47;83.11
62928;BME280;51070;52.236;-0.892;2022-12-13T12:17:42;99940.69;;;0.51;82.70
62928;BME280;51070;52.236;-0.892;2022-12-13T12:20:10;99941.14;;;0.53;82.88
62928;BME280;51070;52.236;-0.892;2022-12-13T12:30:23;99943.02;;;0.62;82.67
62928;BME280;51070;52.236;-0.892;2022-12-13T12:32:53;99932.71;;;0.69;82.80
62928;BME280;51070;52.236;-0.892;2022-12-13T12:40:29;99918.02;;;0.91;82.15
62928;BME280;51070;52.236;-0.892;2022-12-13T12:43:01;99919.80;;;0.92;81.95
62928;BME280;51070;52.236;-0.892;2022-12-13T12:45:40;99917.05;;;0.92;81.59
62928;BME280;51070;52.236;-0.892;2022-12-13T12:53:28;99898.01;;;0.92;81.88
62928;BME280;51070;52.236;-0.892;2022-12-13T13:03:24;99890.73;;;0.87;82.11
62928;BME280;51070;52.236;-0.892;2022-12-13T13:10:46;99890.30;;;0.97;81.93
62928;BME280;51070;52.236;-0.892;2022-12-13T13:15:56;99887.02;;;1.02;82.04
62928;BME280;51070;52.236;-0.892;2022-12-13T13:21:25;99887.82;;;1.04;81.92
62928;BME280;51070;52.236;-0.892;2022-12-13T13:26:29;99883.97;;;1.00;81.54
62928;BME280;51070;52.236;-0.892;2022-12-13T13:29:14;99883.02;;;0.98;81.91
62928;BME280;51070;52.236;-0.892;2022-12-13T13:32:25;99884.13;;;0.96;81.97
62928;BME280;51070;52.236;-0.892;2022-12-13T13:34:29;99880.30;;;0.92;81.95
62928;BME280;51070;52.236;-0.892;2022-12-13T13:36:55;99877.77;;;0.86;82.07
62928;BME280;51070;52.236;-0.892;2022-12-13T13:52:46;99868.30;;;0.78;82.89
62928;BME280;51070;52.236;-0.892;2022-12-13T13:55:24;99870.47;;;0.74;82.60
62928;BME280;51070;52.236;-0.892;2022-12-13T14:08:30;99870.69;;;0.46;83.67
62928;BME280;51070;52.236;-0.892;2022-12-13T14:16:12;99876.98;;;0.26;83.35
62928;BME280;51070;52.236;-0.892;2022-12-13T14:24:07;99863.66;;;0.19;84.11
62928;BME280;51070;52.236;-0.892;2022-12-13T14:26:49;99864.66;;;0.19;84.08
62928;BME280;51070;52.236;-0.892;2022-12-13T14:29:23;99865.30;;;0.18;84.47
62928;BME280;51070;52.236;-0.892;2022-12-13T14:31:51;99861.55;;;0.21;84.40
62928;BME280;51070;52.236;-0.892;2022-12-13T14:34:21;99852.42;;;0.22;84.50
62928;BME280;51070;52.236;-0.892;2022-12-13T14:36:53;99853.46;;;0.22;84.59
62928;BME280;51070;52.236;-0.892;2022-12-13T14:39:18;99850.93;;;0.20;84.12
62928;BME280;51070;52.236;-0.892;2022-12-13T14:41:48;99853.61;;;0.16;84.23
62928;BME280;51070;52.236;-0.892;2022-12-13T14:49:21;99864.59;;;0.07;84.37
62928;BME280;51070;52.236;-0.892;2022-12-13T14:51:48;99861.73;;;0.04;84.46
62928;BME280;51070;52.236;-0.892;2022-12-13T14:54:20;99858.88;;;0.02;84.70
62928;BME280;51070;52.236;-0.892;2022-12-13T14:56:54;99853.95;;;0.02;84.67